sensor_id;sensor_type;location;lat;lon;timestamp;pressure;altitude;pressure_sealevel;temperature;humidity
19789;BME280;10054;59.332;18.244;2023-01-15T00:01:21;98754.80;;;4.24;100.00
19789;BME280;10054;59.332;18.244;2023-01-15T00:03:50;98766.65;;;4.23;100.00
19789;BME280;10054;59.332;18.244;2023-01-15T00:06:20;98771.14;;;4.21;100.00
19789;BME280;10054;59.332;18.244;2023-01-15T00:08:50;98769.16;;;4.24;100.00
19789;BME280;10054;59.332;18.244;2023-01-15T00:11:20;98750.89;;;4.24;100.00
19789;BME280;10054;59.332;18.244;2023-01-15T00:13:49;98748.84;;;4.22;100.00
19789;BME280;10054;59.332;18.244;2023-01-15T00:16:21;98744.73;;;4.25;100.00
19789;BME280;10054;59.332;18.244;2023-01-15T00:18:51;98733.83;;;4.26;100.00
19789;BME280;10054;59.332;18.244;2023-01-15T00:21:21;98723.02;;;4.25;100.00
19789;BME280;10054;59.332;18.244;2023-01-15T00:23:50;98710.44;;;4.24;100.00
19789;BME280;10054;59.332;18.244;2023-01-15T00:26:38;98704.17;;;4.27;100.00
19789;BME280;10054;59.332;18.244;2023-01-15T00:29:25;98678.17;;;4.25;100.00
19789;BME280;10054;59.332;18.244;2023-01-15T00:32:03;98660.11;;;4.22;100.00
19789;BME280;10054;59.332;18.244;2023-01-15T00:34:32;98668.78;;;4.23;100.00
19789;BME280;10054;59.332;18.244;2023-01-15T00:37:01;98675.30;;;4.23;100.00
19789;BME280;10054;59.332;18.244;2023-01-15T00:39:32;98668.98;;;4.20;100.00
19789;BME280;10054;59.332;18.244;2023-01-15T00:42:02;98665.28;;;4.17;100.00
19789;BME280;10054;59.332;18.244;2023-01-15T00:44:32;98643.83;;;4.19;100.00
19789;BME280;10054;59.332;18.244;2023-01-15T00:47:01;98651.40;;;4.16;100.00
19789;BME280;10054;59.332;18.244;2023-01-15T00:49:29;98645.19;;;4.12;100.00
19789;BME280;10054;59.332;18.244;2023-01-15T00:51:58;98628.22;;;4.12;100.00
19789;BME280;10054;59.332;18.244;2023-01-15T00:54:27;98623.47;;;4.11;100.00
19789;BME280;10054;59.332;18.244;2023-01-15T00:56:56;98608.50;;;4.08;100.00
19789;BME280;10054;59.332;18.244;2023-01-15T00:59:25;98603.02;;;4.05;100.00
19789;BME280;10054;59.332;18.244;2023-01-15T01:01:53;98585.22;;;4.05;100.00
19789;BME280;10054;59.332;18.244;2023-01-15T01:04:22;98588.77;;;4.04;100.00
19789;BME280;10054;59.332;18.244;2023-01-15T01:06:51;98581.25;;;3.99;100.00
19789;BME280;10054;59.332;18.244;2023-01-15T01:09:20;98555.74;;;3.97;100.00
19789;BME280;10054;59.332;18.244;2023-01-15T01:11:49;98552.77;;;3.96;100.00
19789;BME280;10054;59.332;18.244;2023-01-15T01:14:18;98549.53;;;3.92;100.00
19789;BME280;10054;59.332;18.244;2023-01-15T01:16:46;98535.14;;;3.87;100.00
19789;BME280;10054;59.332;18.244;2023-01-15T01:19:17;98532.17;;;3.86;100.00
19789;BME280;10054;59.332;18.244;2023-01-15T01:21:48;98522.56;;;3.86;100.00
19789;BME280;10054;59.332;18.244;2023-01-15T01:24:19;98510.57;;;3.84;100.00
19789;BME280;10054;59.332;18.244;2023-01-15T01:26:49;98504.84;;;3.79;100.00
19789;BME280;10054;59.332;18.244;2023-01-15T01:29:22;98502.70;;;3.78;100.00
19789;BME280;10054;59.332;18.244;2023-01-15T01:31:51;98492.48;;;3.75;100.00
19789;BME280;10054;59.332;18.244;2023-01-15T01:34:19;98478.34;;;3.72;100.00
19789;BME280;10054;59.332;18.244;2023-01-15T01:36:48;98463.05;;;3.68;100.00
19789;BME280;10054;59.332;18.244;2023-01-15T01:39:18;98450.84;;;3.68;100.00
19789;BME280;10054;59.332;18.244;2023-01-15T01:41:47;98449.64;;;3.67;100.00
19789;BME280;10054;59.332;18.244;2023-01-15T01:47:12;98437.66;;;3.64;100.00
19789;BME280;10054;59.332;18.244;2023-01-15T01:49:43;98422.38;;;3.65;100.00
19789;BME280;10054;59.332;18.244;2023-01-15T01:52:16;98404.12;;;3.65;100.00
19789;BME280;10054;59.332;18.244;2023-01-15T01:54:46;98389.89;;;3.63;100.00
19789;BME280;10054;59.332;18.244;2023-01-15T01:57:16;98376.39;;;3.64;100.00
19789;BME280;10054;59.332;18.244;2023-01-15T01:59:47;98355.31;;;3.67;100.00
19789;BME280;10054;59.332;18.244;2023-01-15T02:02:18;98345.47;;;3.65;100.00
19789;BME280;10054;59.332;18.244;2023-01-15T02:04:48;98337.02;;;3.61;100.00
19789;BME280;10054;59.332;18.244;2023-01-15T02:07:16;98326.59;;;3.61;100.00
19789;BME280;10054;59.332;18.244;2023-01-15T02:09:45;98315.70;;;3.62;100.00
19789;BME280;10054;59.332;18.244;2023-01-15T02:12:27;98284.99;;;3.60;100.00
19789;BME280;10054;59.332;18.244;2023-01-15T02:15:11;98290.53;;;3.55;100.00
19789;BME280;10054;59.332;18.244;2023-01-15T02:17:46;98269.68;;;3.55;100.00
19789;BME280;10054;59.332;18.244;2023-01-15T02:20:28;98265.77;;;3.55;100.00
19789;BME280;10054;59.332;18.244;2023-01-15T02:28:36;98255.31;;;3.50;100.00
19789;BME280;10054;59.332;18.244;2023-01-15T02:31:18;98215.34;;;3.44;100.00
19789;BME280;10054;59.332;18.244;2023-01-15T02:36:26;98192.88;;;3.30;100.00
19789;BME280;10054;59.332;18.244;2023-01-15T02:38:58;98189.45;;;3.29;100.00
19789;BME280;10054;59.332;18.244;2023-01-15T02:41:31;98169.88;;;3.24;100.00
19789;BME280;10054;59.332;18.244;2023-01-15T02:44:01;98165.35;;;3.20;100.00
19789;BME280;10054;59.332;18.244;2023-01-15T02:46:33;98165.93;;;3.18;100.00
19789;BME280;10054;59.332;18.244;2023-01-15T02:49:05;98146.75;;;3.19;100.00
19789;BME280;10054;59.332;18.244;2023-01-15T02:51:43;98124.00;;;3.16;100.00
19789;BME280;10054;59.332;18.244;2023-01-15T02:54:13;98115.22;;;3.11;100.00
19789;BME280;10054;59.332;18.244;2023-01-15T02:56:44;98112.25;;;3.10;100.00
19789;BME280;10054;59.332;18.244;2023-01-15T02:59:26;98102.44;;;3.14;100.00
19789;BME280;10054;59.332;18.244;2023-01-15T03:02:03;98096.63;;;3.10;100.00
19789;BME280;10054;59.332;18.244;2023-01-15T03:07:33;98064.89;;;3.11;100.00
19789;BME280;10054;59.332;18.244;2023-01-15T03:09:57;98048.20;;;3.13;100.00
19789;BME280;10054;59.332;18.244;2023-01-15T03:15:07;98024.05;;;3.11;100.00
19789;BME280;10054;59.332;18.244;2023-01-15T03:17:46;98014.23;;;3.15;100.00
19789;BME280;10054;59.332;18.244;2023-01-15T03:20:16;97999.80;;;3.16;100.00
19789;BME280;10054;59.332;18.244;2023-01-15T03:22:48;97984.52;;;3.17;100.00
19789;BME280;10054;59.332;18.244;2023-01-15T03:25:23;97974.69;;;3.15;100.00
19789;BME280;10054;59.332;18.244;2023-01-15T03:27:53;97971.03;;;3.18;100.00
19789;BME280;10054;59.332;18.244;2023-01-15T03:30:24;97963.45;;;3.20;100.00
19789;BME280;10054;59.332;18.244;2023-01-15T03:32:56;97952.32;;;3.18;100.00
19789;BME280;10054;59.332;18.244;2023-01-15T03:35:48;97951.48;;;3.18;100.00
19789;BME280;10054;59.332;18.244;2023-01-15T03:38:24;97937.41;;;3.20;100.00
19789;BME280;10054;59.332;18.244;2023-01-15T03:41:14;97922.25;;;3.20;100.00
19789;BME280;10054;59.332;18.244;2023-01-15T03:44:14;97910.64;;;3.18;100.00
19789;BME280;10054;59.332;18.244;2023-01-15T03:52:49;97861.50;;;3.19;100.00
19789;BME280;10054;59.332;18.244;2023-01-15T03:55:28;97859.61;;;3.16;100.00
19789;BME280;10054;59.332;18.244;2023-01-15T03:58:04;97846.82;;;3.18;100.00
19789;BME280;10054;59.332;18.244;2023-01-15T04:00:41;97834.15;;;3.19;100.00
19789;BME280;10054;59.332;18.244;2023-01-15T04:03:12;97834.86;;;3.16;100.00
19789;BME280;10054;59.332;18.244;2023-01-15T04:05:43;97823.61;;;3.15;100.00
19789;BME280;10054;59.332;18.244;2023-01-15T04:08:13;97807.03;;;3.22;100.00
19789;BME280;10054;59.332;18.244;2023-01-15T04:10:58;97794.12;;;3.26;100.00
19789;BME280;10054;59.332;18.244;2023-01-15T04:13:29;97787.27;;;3.25;100.00
19789;BME280;10054;59.332;18.244;2023-01-15T04:15:59;97780.63;;;3.26;100.00
19789;BME280;10054;59.332;18.244;2023-01-15T04:18:28;97765.94;;;3.31;100.00
19789;BME280;10054;59.332;18.244;2023-01-15T04:20:57;97762.63;;;3.35;100.00
19789;BME280;10054;59.332;18.244;2023-01-15T04:23:26;97752.20;;;3.35;100.00
19789;BME280;10054;59.332;18.244;2023-01-15T04:25:56;97752.31;;;3.39;100.00
19789;BME280;10054;59.332;18.244;2023-01-15T04:28:24;97744.23;;;3.47;100.00
19789;BME280;10054;59.332;18.244;2023-01-15T04:30:55;97736.53;;;3.51;100.00
19789;BME280;10054;59.332;18.244;2023-01-15T04:33:26;97718.41;;;3.50;100.00
19789;BME280;10054;59.332;18.244;2023-01-15T04:35:57;97709.04;;;3.53;100.00
19789;BME280;10054;59.332;18.244;2023-01-15T04:38:25;97703.81;;;3.58;100.00
19789;BME280;10054;59.332;18.244;2023-01-15T04:40:54;97688.41;;;3.61;100.00
19789;BME280;10054;59.332;18.244;2023-01-15T04:43:40;97684.84;;;3.62;100.00
19789;BME280;10054;59.332;18.244;2023-01-15T04:46:28;97682.59;;;3.63;100.00
19789;BME280;10054;59.332;18.244;2023-01-15T04:48:57;97667.82;;;3.73;100.00
19789;BME280;10054;59.332;18.244;2023-01-15T04:51:26;97653.48;;;3.73;100.00
19789;BME280;10054;59.332;18.244;2023-01-15T04:53:54;97648.63;;;3.74;100.00
19789;BME280;10054;59.332;18.244;2023-01-15T04:56:23;97653.45;;;3.79;100.00
19789;BME280;10054;59.332;18.244;2023-01-15T04:58:52;97646.78;;;3.86;100.00
19789;BME280;10054;59.332;18.244;2023-01-15T05:01:20;97635.15;;;3.90;100.00
19789;BME280;10054;59.332;18.244;2023-01-15T05:03:49;97627.33;;;3.90;100.00
19789;BME280;10054;59.332;18.244;2023-01-15T05:06:18;97623.73;;;3.96;100.00
19789;BME280;10054;59.332;18.244;2023-01-15T05:08:47;97612.09;;;4.01;100.00
19789;BME280;10054;59.332;18.244;2023-01-15T05:11:16;97607.22;;;4.02;100.00
19789;BME280;10054;59.332;18.244;2023-01-15T05:13:48;97604.61;;;4.02;100.00
19789;BME280;10054;59.332;18.244;2023-01-15T05:16:24;97583.27;;;4.02;100.00
19789;BME280;10054;59.332;18.244;2023-01-15T05:18:49;97585.97;;;4.06;100.00
19789;BME280;10054;59.332;18.244;2023-01-15T05:21:20;97591.05;;;4.08;100.00
19789;BME280;10054;59.332;18.244;2023-01-15T05:23:54;97584.41;;;4.09;100.00
19789;BME280;10054;59.332;18.244;2023-01-15T05:26:24;97588.89;;;4.13;100.00
19789;BME280;10054;59.332;18.244;2023-01-15T05:28:54;97586.02;;;4.16;100.00
19789;BME280;10054;59.332;18.244;2023-01-15T05:31:24;97570.36;;;4.16;100.00
19789;BME280;10054;59.332;18.244;2023-01-15T05:33:54;97572.23;;;4.19;100.00
19789;BME280;10054;59.332;18.244;2023-01-15T05:36:26;97566.62;;;4.24;100.00
19789;BME280;10054;59.332;18.244;2023-01-15T05:38:55;97563.89;;;4.25;100.00
19789;BME280;10054;59.332;18.244;2023-01-15T05:41:28;97568.97;;;4.27;100.00
19789;BME280;10054;59.332;18.244;2023-01-15T05:44:26;97561.84;;;4.29;100.00
19789;BME280;10054;59.332;18.244;2023-01-15T05:46:58;97556.02;;;4.31;100.00
19789;BME280;10054;59.332;18.244;2023-01-15T05:49:29;97556.02;;;4.31;100.00
19789;BME280;10054;59.332;18.244;2023-01-15T05:51:59;97559.92;;;4.31;100.00
19789;BME280;10054;59.332;18.244;2023-01-15T05:54:31;97557.53;;;4.34;100.00
19789;BME280;10054;59.332;18.244;2023-01-15T05:56:59;97564.41;;;4.35;100.00
19789;BME280;10054;59.332;18.244;2023-01-15T05:59:29;97563.58;;;4.34;100.00
19789;BME280;10054;59.332;18.244;2023-01-15T06:01:59;97563.58;;;4.34;100.00
19789;BME280;10054;59.332;18.244;2023-01-15T06:04:28;97569.84;;;4.37;100.00
19789;BME280;10054;59.332;18.244;2023-01-15T06:06:57;97566.41;;;4.37;100.00
19789;BME280;10054;59.332;18.244;2023-01-15T06:09:26;97566.88;;;4.36;100.00
19789;BME280;10054;59.332;18.244;2023-01-15T06:11:56;97561.53;;;4.38;100.00
19789;BME280;10054;59.332;18.244;2023-01-15T06:14:24;97569.84;;;4.37;100.00
19789;BME280;10054;59.332;18.244;2023-01-15T06:16:53;97580.41;;;4.36;100.00
19789;BME280;10054;59.332;18.244;2023-01-15T06:19:22;97585.15;;;4.36;100.00
19789;BME280;10054;59.332;18.244;2023-01-15T06:21:50;97585.15;;;4.36;100.00
19789;BME280;10054;59.332;18.244;2023-01-15T06:24:19;97586.58;;;4.35;100.00
19789;BME280;10054;59.332;18.244;2023-01-15T06:26:47;97592.41;;;4.33;100.00
19789;BME280;10054;59.332;18.244;2023-01-15T06:29:16;97592.41;;;4.33;100.00
19789;BME280;10054;59.332;18.244;2023-01-15T06:31:46;97584.23;;;4.32;100.00
19789;BME280;10054;59.332;18.244;2023-01-15T06:34:15;97586.02;;;4.31;100.00
19789;BME280;10054;59.332;18.244;2023-01-15T06:36:44;97588.41;;;4.28;100.00
19789;BME280;10054;59.332;18.244;2023-01-15T06:39:13;97587.94;;;4.29;100.00
19789;BME280;10054;59.332;18.244;2023-01-15T06:41:41;97587.23;;;4.27;100.00
19789;BME280;10054;59.332;18.244;2023-01-15T06:44:28;97584.06;;;4.23;100.00
19789;BME280;10054;59.332;18.244;2023-01-15T06:47:20;97591.06;;;4.23;100.00
19789;BME280;10054;59.332;18.244;2023-01-15T06:52:23;97598.94;;;4.17;100.00
19789;BME280;10054;59.332;18.244;2023-01-15T06:54:52;97601.67;;;4.16;100.00
19789;BME280;10054;59.332;18.244;2023-01-15T06:57:21;97602.50;;;4.16;100.00
19789;BME280;10054;59.332;18.244;2023-01-15T06:59:50;97604.89;;;4.14;100.00
19789;BME280;10054;59.332;18.244;2023-01-15T07:02:19;97612.97;;;4.11;100.00
19789;BME280;10054;59.332;18.244;2023-01-15T07:04:48;97610.49;;;4.09;100.00
19789;BME280;10054;59.332;18.244;2023-01-15T07:07:18;97610.49;;;4.09;100.00
19789;BME280;10054;59.332;18.244;2023-01-15T07:09:47;97620.23;;;4.07;100.00
19789;BME280;10054;59.332;18.244;2023-01-15T07:12:16;97624.74;;;4.05;100.00
19789;BME280;10054;59.332;18.244;2023-01-15T07:14:45;97636.00;;;4.06;100.00
19789;BME280;10054;59.332;18.244;2023-01-15T07:17:14;97627.35;;;4.05;100.00
19789;BME280;10054;59.332;18.244;2023-01-15T07:19:44;97634.95;;;4.03;100.00
19789;BME280;10054;59.332;18.244;2023-01-15T07:22:12;97641.38;;;3.99;100.00
19789;BME280;10054;59.332;18.244;2023-01-15T07:24:41;97642.81;;;3.97;100.00
19789;BME280;10054;59.332;18.244;2023-01-15T07:27:10;97638.11;;;3.91;100.00
19789;BME280;10054;59.332;18.244;2023-01-15T07:29:38;97646.31;;;3.86;100.00
19789;BME280;10054;59.332;18.244;2023-01-15T07:32:10;97645.95;;;3.85;100.00
19789;BME280;10054;59.332;18.244;2023-01-15T07:34:40;97653.78;;;3.85;100.00
19789;BME280;10054;59.332;18.244;2023-01-15T07:37:09;97656.52;;;3.84;100.00
19789;BME280;10054;59.332;18.244;2023-01-15T07:39:37;97655.34;;;3.82;100.00
19789;BME280;10054;59.332;18.244;2023-01-15T07:42:08;97668.59;;;3.85;100.00
19789;BME280;10054;59.332;18.244;2023-01-15T07:44:53;97683.42;;;3.84;100.00
19789;BME280;10054;59.332;18.244;2023-01-15T07:47:40;97677.50;;;3.82;100.00
19789;BME280;10054;59.332;18.244;2023-01-15T07:50:26;97681.16;;;3.85;100.00
19789;BME280;10054;59.332;18.244;2023-01-15T07:52:55;97677.73;;;3.85;100.00
19789;BME280;10054;59.332;18.244;2023-01-15T07:55:24;97688.28;;;3.83;100.00
19789;BME280;10054;59.332;18.244;2023-01-15T07:57:52;97698.94;;;3.86;100.00
19789;BME280;10054;59.332;18.244;2023-01-15T08:00:23;97686.60;;;3.88;100.00
19789;BME280;10054;59.332;18.244;2023-01-15T08:02:52;97688.86;;;3.87;100.00
19789;BME280;10054;59.332;18.244;2023-01-15T08:05:21;97692.30;;;3.87;100.00
19789;BME280;10054;59.332;18.244;2023-01-15T08:07:50;97700.82;;;3.89;100.00
19789;BME280;10054;59.332;18.244;2023-01-15T08:10:18;97701.77;;;3.88;100.00
19789;BME280;10054;59.332;18.244;2023-01-15T08:12:49;97694.08;;;3.87;100.00
19789;BME280;10054;59.332;18.244;2023-01-15T08:15:38;97698.69;;;3.89;100.00
19789;BME280;10054;59.332;18.244;2023-01-15T08:18:10;97700.22;;;3.91;100.00
19789;BME280;10054;59.332;18.244;2023-01-15T08:20:38;97700.82;;;3.89;100.00
19789;BME280;10054;59.332;18.244;2023-01-15T08:23:07;97703.55;;;3.88;100.00
19789;BME280;10054;59.332;18.244;2023-01-15T08:25:37;97710.90;;;3.88;100.00
19789;BME280;10054;59.332;18.244;2023-01-15T08:28:05;97706.64;;;3.87;100.00
19789;BME280;10054;59.332;18.244;2023-01-15T08:30:34;97703.20;;;3.87;100.00
19789;BME280;10054;59.332;18.244;2023-01-15T08:33:03;97711.98;;;3.86;100.00
19789;BME280;10054;59.332;18.244;2023-01-15T08:35:33;97715.66;;;3.83;100.00
19789;BME280;10054;59.332;18.244;2023-01-15T08:38:06;97722.91;;;3.80;100.00
19789;BME280;10054;59.332;18.244;2023-01-15T08:40:35;97720.55;;;3.77;100.00
19789;BME280;10054;59.332;18.244;2023-01-15T08:43:06;97728.02;;;3.76;100.00
19789;BME280;10054;59.332;18.244;2023-01-15T08:45:34;97726.00;;;3.74;100.00
19789;BME280;10054;59.332;18.244;2023-01-15T08:48:03;97730.87;;;3.73;100.00
19789;BME280;10054;59.332;18.244;2023-01-15T08:50:31;97731.63;;;3.69;100.00
19789;BME280;10054;59.332;18.244;2023-01-15T08:53:00;97736.96;;;3.68;100.00
19789;BME280;10054;59.332;18.244;2023-01-15T08:55:28;97741.95;;;3.65;100.00
19789;BME280;10054;59.332;18.244;2023-01-15T08:57:59;97746.80;;;3.64;100.00
19789;BME280;10054;59.332;18.244;2023-01-15T09:00:27;97752.84;;;3.65;100.00
19789;BME280;10054;59.332;18.244;2023-01-15T09:02:57;97755.58;;;3.63;100.00
19789;BME280;10054;59.332;18.244;2023-01-15T09:05:25;97753.56;;;3.61;100.00
19789;BME280;10054;59.332;18.244;2023-01-15T09:07:55;97760.56;;;3.60;100.00
19789;BME280;10054;59.332;18.244;2023-01-15T09:10:24;97766.25;;;3.60;100.00
19789;BME280;10054;59.332;18.244;2023-01-15T09:12:53;97763.28;;;3.59;100.00
19789;BME280;10054;59.332;18.244;2023-01-15T09:15:21;97756.66;;;3.55;100.00
19789;BME280;10054;59.332;18.244;2023-01-15T09:17:50;97763.66;;;3.54;100.00
19789;BME280;10054;59.332;18.244;2023-01-15T09:20:19;97770.52;;;3.55;100.00
19789;BME280;10054;59.332;18.244;2023-01-15T09:22:48;97762.95;;;3.52;100.00
19789;BME280;10054;59.332;18.244;2023-01-15T09:25:17;97766.75;;;3.48;100.00
19789;BME280;10054;59.332;18.244;2023-01-15T09:27:46;97761.17;;;3.47;100.00
19789;BME280;10054;59.332;18.244;2023-01-15T09:30:20;97774.20;;;3.47;100.00
19789;BME280;10054;59.332;18.244;2023-01-15T09:32:49;97766.75;;;3.43;100.00
19789;BME280;10054;59.332;18.244;2023-01-15T09:35:18;97775.99;;;3.41;100.00
19789;BME280;10054;59.332;18.244;2023-01-15T09:37:51;97770.43;;;3.40;100.00
19789;BME280;10054;59.332;18.244;2023-01-15T09:40:50;97766.40;;;3.42;100.00
19789;BME280;10054;59.332;18.244;2023-01-15T09:46:05;97769.13;;;3.35;100.00
19789;BME280;10054;59.332;18.244;2023-01-15T09:51:34;97777.89;;;3.34;100.00
19789;BME280;10054;59.332;18.244;2023-01-15T09:54:32;97777.78;;;3.29;100.00
19789;BME280;10054;59.332;18.244;2023-01-15T09:56:58;97789.16;;;3.28;100.00
19789;BME280;10054;59.332;18.244;2023-01-15T09:59:34;97787.38;;;3.29;100.00
19789;BME280;10054;59.332;18.244;2023-01-15T10:02:40;97791.05;;;3.26;100.00
19789;BME280;10054;59.332;18.244;2023-01-15T10:05:20;97787.50;;;3.22;100.00
19789;BME280;10054;59.332;18.244;2023-01-15T10:07:55;97799.10;;;3.23;100.00
19789;BME280;10054;59.332;18.244;2023-01-15T10:10:26;97790.11;;;3.22;100.00
19789;BME280;10054;59.332;18.244;2023-01-15T10:12:58;97788.69;;;3.18;100.00
19789;BME280;10054;59.332;18.244;2023-01-15T10:15:31;97795.31;;;3.16;100.00
19789;BME280;10054;59.332;18.244;2023-01-15T10:17:59;97797.33;;;3.18;100.00
19789;BME280;10054;59.332;18.244;2023-01-15T10:23:36;97797.56;;;3.15;100.00
19789;BME280;10054;59.332;18.244;2023-01-15T10:28:59;97804.79;;;3.17;100.00
19789;BME280;10054;59.332;18.244;2023-01-15T10:37:16;97807.51;;;3.21;100.00
19789;BME280;10054;59.332;18.244;2023-01-15T10:40:54;97804.08;;;3.26;100.00
19789;BME280;10054;59.332;18.244;2023-01-15T10:42:52;97798.27;;;3.28;100.00
19789;BME280;10054;59.332;18.244;2023-01-15T10:45:24;97807.15;;;3.32;100.00
19789;BME280;10054;59.332;18.244;2023-01-15T10:47:58;97804.55;;;3.37;100.00
19789;BME280;10054;59.332;18.244;2023-01-15T10:50:24;97806.55;;;3.39;100.00
19789;BME280;10054;59.332;18.244;2023-01-15T10:53:04;97803.00;;;3.40;100.00
19789;BME280;10054;59.332;18.244;2023-01-15T10:55:39;97810.58;;;3.43;100.00
19789;BME280;10054;59.332;18.244;2023-01-15T11:01:05;97820.41;;;3.45;100.00
19789;BME280;10054;59.332;18.244;2023-01-15T11:03:41;97824.55;;;3.48;100.00
19789;BME280;10054;59.332;18.244;2023-01-15T11:06:15;97820.64;;;3.53;100.00
19789;BME280;10054;59.332;18.244;2023-01-15T11:08:49;97813.77;;;3.58;100.00
19789;BME280;10054;59.332;18.244;2023-01-15T11:11:39;97812.34;;;3.59;100.00
19789;BME280;10054;59.332;18.244;2023-01-15T11:14:35;97808.54;;;3.63;100.00
19789;BME280;10054;59.332;18.244;2023-01-15T11:17:27;97809.95;;;3.68;100.00
19789;BME280;10054;59.332;18.244;2023-01-15T11:22:50;97820.81;;;3.73;100.00
19789;BME280;10054;59.332;18.244;2023-01-15T11:25:27;97809.20;;;3.77;100.00
19789;BME280;10054;59.332;18.244;2023-01-15T11:27:54;97802.08;;;3.79;100.00
19789;BME280;10054;59.332;18.244;2023-01-15T11:30:31;97803.61;;;3.81;100.00
19789;BME280;10054;59.332;18.244;2023-01-15T11:33:02;97808.94;;;3.85;100.00
19789;BME280;10054;59.332;18.244;2023-01-15T11:35:33;97806.20;;;3.87;100.00
19789;BME280;10054;59.332;18.244;2023-01-15T11:40:33;97802.88;;;3.90;100.00
19789;BME280;10054;59.332;18.244;2023-01-15T11:43:02;97802.38;;;3.96;100.00
19789;BME280;10054;59.332;18.244;2023-01-15T11:45:51;97804.05;;;3.98;100.00
19789;BME280;10054;59.332;18.244;2023-01-15T11:48:47;97806.17;;;3.98;100.00
19789;BME280;10054;59.332;18.244;2023-01-15T11:51:41;97801.89;;;4.03;100.00
19789;BME280;10054;59.332;18.244;2023-01-15T11:54:12;97801.77;;;4.04;100.00
19789;BME280;10054;59.332;18.244;2023-01-15T11:56:45;97800.34;;;4.06;100.00
19789;BME280;10054;59.332;18.244;2023-01-15T11:59:17;97803.17;;;4.08;100.00
19789;BME280;10054;59.332;18.244;2023-01-15T12:01:54;97790.84;;;4.10;100.00
19789;BME280;10054;59.332;18.244;2023-01-15T12:04:53;97792.14;;;4.10;100.00
19789;BME280;10054;59.332;18.244;2023-01-15T12:07:11;97783.61;;;4.08;100.00
19789;BME280;10054;59.332;18.244;2023-01-15T12:15:31;97780.07;;;4.04;100.00
19789;BME280;10054;59.332;18.244;2023-01-15T12:18:22;97783.03;;;4.05;100.00
19789;BME280;10054;59.332;18.244;2023-01-15T12:23:34;97781.73;;;4.05;100.00
19789;BME280;10054;59.332;18.244;2023-01-15T12:26:07;97780.30;;;4.06;100.00
19789;BME280;10054;59.332;18.244;2023-01-15T12:28:37;97779.95;;;4.05;100.00
19789;BME280;10054;59.332;18.244;2023-01-15T12:31:09;97777.36;;;4.00;100.00
19789;BME280;10054;59.332;18.244;2023-01-15T12:33:44;97781.27;;;4.00;100.00
19789;BME280;10054;59.332;18.244;2023-01-15T12:39:06;97790.30;;;3.95;100.00
19789;BME280;10054;59.332;18.244;2023-01-15T12:41:35;97794.69;;;3.95;100.00
19789;BME280;10054;59.332;18.244;2023-01-15T12:44:44;97793.73;;;3.96;100.00
19789;BME280;10054;59.332;18.244;2023-01-15T12:50:12;97791.23;;;4.00;100.00
19789;BME280;10054;59.332;18.244;2023-01-15T12:52:38;97790.86;;;4.05;100.00
19789;BME280;10054;59.332;18.244;2023-01-15T12:55:15;97792.64;;;4.04;100.00
19789;BME280;10054;59.332;18.244;2023-01-15T12:57:48;97795.72;;;4.04;100.00
19789;BME280;10054;59.332;18.244;2023-01-15T13:00:26;97792.64;;;4.04;100.00
19789;BME280;10054;59.332;18.244;2023-01-15T13:03:27;97792.28;;;4.03;100.00
19789;BME280;10054;59.332;18.244;2023-01-15T13:05:58;97777.23;;;4.01;100.00
19789;BME280;10054;59.332;18.244;2023-01-15T13:08:39;97795.14;;;4.00;100.00
19789;BME280;10054;59.332;18.244;2023-01-15T13:11:03;97796.32;;;4.02;100.00
19789;BME280;10054;59.332;18.244;2023-01-15T13:13:37;97798.45;;;4.02;100.00
19789;BME280;10054;59.332;18.244;2023-01-15T13:18:56;97791.81;;;4.04;100.00
19789;BME280;10054;59.332;18.244;2023-01-15T13:21:20;97791.45;;;4.03;100.00
19789;BME280;10054;59.332;18.244;2023-01-15T13:32:23;97792.41;;;4.02;100.00
19789;BME280;10054;59.332;18.244;2023-01-15T13:34:58;97795.72;;;4.04;100.00
19789;BME280;10054;59.332;18.244;2023-01-15T13:37:29;97793.34;;;4.06;100.00
19789;BME280;10054;59.332;18.244;2023-01-15T13:40:02;97791.81;;;4.04;100.00
19789;BME280;10054;59.332;18.244;2023-01-15T13:42:31;97790.50;;;4.04;100.00
19789;BME280;10054;59.332;18.244;2023-01-15T13:47:47;97789.55;;;4.05;100.00
19789;BME280;10054;59.332;18.244;2023-01-15T13:50:22;97788.85;;;4.03;100.00
19789;BME280;10054;59.332;18.244;2023-01-15T13:52:48;97779.24;;;4.03;100.00
19789;BME280;10054;59.332;18.244;2023-01-15T13:55:27;97787.42;;;4.04;100.00
19789;BME280;10054;59.332;18.244;2023-01-15T13:57:50;97776.28;;;4.02;100.00
19789;BME280;10054;59.332;18.244;2023-01-15T14:00:33;97786.72;;;4.02;100.00
19789;BME280;10054;59.332;18.244;2023-01-15T14:03:26;97787.42;;;4.04;100.00
19789;BME280;10054;59.332;18.244;2023-01-15T14:05:57;97797.85;;;4.04;100.00
19789;BME280;10054;59.332;18.244;2023-01-15T14:08:36;97794.06;;;4.03;100.00
19789;BME280;10054;59.332;18.244;2023-01-15T14:10:58;97792.16;;;4.05;100.00
19789;BME280;10054;59.332;18.244;2023-01-15T14:13:40;97792.64;;;4.04;100.00
19789;BME280;10054;59.332;18.244;2023-01-15T14:22:19;97799.07;;;3.94;100.00
19789;BME280;10054;59.332;18.244;2023-01-15T14:25:13;97789.13;;;3.88;100.00
19789;BME280;10054;59.332;18.244;2023-01-15T14:27:46;97792.46;;;3.85;100.00
19789;BME280;10054;59.332;18.244;2023-01-15T14:30:23;97795.90;;;3.85;100.00
19789;BME280;10054;59.332;18.244;2023-01-15T14:32:58;97803.37;;;3.84;100.00
19789;BME280;10054;59.332;18.244;2023-01-15T14:35:26;97804.09;;;3.81;100.00
19789;BME280;10054;59.332;18.244;2023-01-15T14:37:58;97792.36;;;3.81;100.00
19789;BME280;10054;59.332;18.244;2023-01-15T14:40:32;97791.88;;;3.81;100.00
19789;BME280;10054;59.332;18.244;2023-01-15T14:43:14;97804.09;;;3.81;100.00
19789;BME280;10054;59.332;18.244;2023-01-15T14:45:41;97799.83;;;3.80;100.00